sensor_id;sensor_type;location;lat;lon;timestamp;P1;durP1;ratioP1;P2;durP2;ratioP2
1344;SDS011;15375;48.540;9.268;2024-02-15T00:01:04;2.87;;;2.67;;
1344;SDS011;15375;48.540;9.268;2024-02-15T00:03:30;5.20;;;3.07;;
1344;SDS011;15375;48.540;9.268;2024-02-15T00:05:56;4.53;;;4.13;;
1344;SDS011;15375;48.540;9.268;2024-02-15T00:08:22;3.80;;;2.50;;
1344;SDS011;15375;48.540;9.268;2024-02-15T00:10:49;3.83;;;3.03;;
1344;SDS011;15375;48.540;9.268;2024-02-15T00:13:15;6.67;;;3.83;;
1344;SDS011;15375;48.540;9.268;2024-02-15T00:15:40;3.97;;;3.17;;
1344;SDS011;15375;48.540;9.268;2024-02-15T00:18:06;3.40;;;3.03;;
1344;SDS011;15375;48.540;9.268;2024-02-15T00:20:32;3.70;;;2.67;;
1344;SDS011;15375;48.540;9.268;2024-02-15T00:22:58;3.43;;;3.10;;
1344;SDS011;15375;48.540;9.268;2024-02-15T00:25:24;3.47;;;2.83;;
1344;SDS011;15375;48.540;9.268;2024-02-15T00:27:50;3.17;;;2.30;;
1344;SDS011;15375;48.540;9.268;2024-02-15T00:30:16;2.40;;;2.17;;
1344;SDS011;15375;48.540;9.268;2024-02-15T00:32:41;4.83;;;2.70;;
1344;SDS011;15375;48.540;9.268;2024-02-15T00:35:07;4.40;;;2.17;;
1344;SDS011;15375;48.540;9.268;2024-02-15T00:37:34;2.40;;;2.00;;
1344;SDS011;15375;48.540;9.268;2024-02-15T00:40:00;5.40;;;2.80;;
1344;SDS011;15375;48.540;9.268;2024-02-15T00:42:26;3.10;;;2.03;;
1344;SDS011;15375;48.540;9.268;2024-02-15T00:44:51;3.80;;;2.40;;
1344;SDS011;15375;48.540;9.268;2024-02-15T00:47:17;3.00;;;1.80;;
1344;SDS011;15375;48.540;9.268;2024-02-15T00:49:46;2.33;;;1.97;;
1344;SDS011;15375;48.540;9.268;2024-02-15T00:52:11;2.20;;;2.00;;
1344;SDS011;15375;48.540;9.268;2024-02-15T00:54:36;4.33;;;2.70;;
1344;SDS011;15375;48.540;9.268;2024-02-15T00:57:02;4.73;;;2.70;;
1344;SDS011;15375;48.540;9.268;2024-02-15T00:59:27;2.70;;;2.50;;
1344;SDS011;15375;48.540;9.268;2024-02-15T01:01:53;2.57;;;2.30;;
1344;SDS011;15375;48.540;9.268;2024-02-15T01:04:18;3.63;;;2.70;;
1344;SDS011;15375;48.540;9.268;2024-02-15T01:06:44;4.20;;;2.60;;
1344;SDS011;15375;48.540;9.268;2024-02-15T01:09:10;5.23;;;2.27;;
1344;SDS011;15375;48.540;9.268;2024-02-15T01:11:35;5.83;;;3.00;;
1344;SDS011;15375;48.540;9.268;2024-02-15T01:14:01;3.23;;;2.20;;
1344;SDS011;15375;48.540;9.268;2024-02-15T01:16:27;5.20;;;2.27;;
1344;SDS011;15375;48.540;9.268;2024-02-15T01:18:52;3.37;;;2.17;;
1344;SDS011;15375;48.540;9.268;2024-02-15T01:21:18;2.03;;;1.80;;
1344;SDS011;15375;48.540;9.268;2024-02-15T01:23:44;2.80;;;2.43;;
1344;SDS011;15375;48.540;9.268;2024-02-15T01:26:11;2.43;;;2.10;;
1344;SDS011;15375;48.540;9.268;2024-02-15T01:28:38;2.87;;;2.40;;
1344;SDS011;15375;48.540;9.268;2024-02-15T01:31:04;2.50;;;2.30;;
1344;SDS011;15375;48.540;9.268;2024-02-15T01:33:29;3.20;;;1.80;;
1344;SDS011;15375;48.540;9.268;2024-02-15T01:35:56;1.47;;;1.37;;
1344;SDS011;15375;48.540;9.268;2024-02-15T01:38:22;2.60;;;1.87;;
1344;SDS011;15375;48.540;9.268;2024-02-15T01:40:47;5.00;;;2.53;;
1344;SDS011;15375;48.540;9.268;2024-02-15T01:43:14;2.60;;;2.40;;
1344;SDS011;15375;48.540;9.268;2024-02-15T01:45:39;4.73;;;2.10;;
1344;SDS011;15375;48.540;9.268;2024-02-15T01:48:05;4.03;;;3.20;;
1344;SDS011;15375;48.540;9.268;2024-02-15T01:50:31;2.27;;;2.03;;
1344;SDS011;15375;48.540;9.268;2024-02-15T01:52:59;4.87;;;3.20;;
1344;SDS011;15375;48.540;9.268;2024-02-15T01:55:26;3.30;;;2.30;;
1344;SDS011;15375;48.540;9.268;2024-02-15T01:57:51;5.40;;;3.23;;
1344;SDS011;15375;48.540;9.268;2024-02-15T02:00:17;3.20;;;2.50;;
1344;SDS011;15375;48.540;9.268;2024-02-15T02:02:44;5.07;;;2.70;;
1344;SDS011;15375;48.540;9.268;2024-02-15T02:05:10;3.73;;;2.80;;
1344;SDS011;15375;48.540;9.268;2024-02-15T02:07:36;2.63;;;2.43;;
1344;SDS011;15375;48.540;9.268;2024-02-15T02:10:02;2.93;;;2.60;;
1344;SDS011;15375;48.540;9.268;2024-02-15T02:12:28;3.00;;;2.57;;
1344;SDS011;15375;48.540;9.268;2024-02-15T02:14:54;5.17;;;3.00;;
1344;SDS011;15375;48.540;9.268;2024-02-15T02:17:19;3.10;;;2.50;;
1344;SDS011;15375;48.540;9.268;2024-02-15T02:19:46;3.30;;;2.17;;
1344;SDS011;15375;48.540;9.268;2024-02-15T02:22:14;3.10;;;1.90;;
1344;SDS011;15375;48.540;9.268;2024-02-15T02:27:23;4.20;;;2.23;;
1344;SDS011;15375;48.540;9.268;2024-02-15T02:29:52;4.30;;;2.63;;
1344;SDS011;15375;48.540;9.268;2024-02-15T02:32:18;3.10;;;2.70;;
1344;SDS011;15375;48.540;9.268;2024-02-15T02:34:43;3.57;;;2.50;;
1344;SDS011;15375;48.540;9.268;2024-02-15T02:37:09;3.30;;;2.50;;
1344;SDS011;15375;48.540;9.268;2024-02-15T02:39:35;3.80;;;2.53;;
1344;SDS011;15375;48.540;9.268;2024-02-15T02:42:00;2.73;;;2.20;;
1344;SDS011;15375;48.540;9.268;2024-02-15T02:44:26;5.13;;;2.67;;
1344;SDS011;15375;48.540;9.268;2024-02-15T02:46:51;3.10;;;1.90;;
1344;SDS011;15375;48.540;9.268;2024-02-15T02:49:17;2.53;;;2.13;;
1344;SDS011;15375;48.540;9.268;2024-02-15T02:51:42;2.40;;;2.07;;
1344;SDS011;15375;48.540;9.268;2024-02-15T02:54:07;1.67;;;1.50;;
1344;SDS011;15375;48.540;9.268;2024-02-15T02:56:33;3.57;;;1.93;;
1344;SDS011;15375;48.540;9.268;2024-02-15T02:58:58;2.50;;;2.20;;
1344;SDS011;15375;48.540;9.268;2024-02-15T03:01:24;2.20;;;2.00;;
1344;SDS011;15375;48.540;9.268;2024-02-15T03:03:52;5.37;;;2.30;;
1344;SDS011;15375;48.540;9.268;2024-02-15T03:06:20;2.43;;;2.23;;
1344;SDS011;15375;48.540;9.268;2024-02-15T03:08:46;2.20;;;1.83;;
1344;SDS011;15375;48.540;9.268;2024-02-15T03:11:12;4.33;;;2.23;;
1344;SDS011;15375;48.540;9.268;2024-02-15T03:13:39;2.50;;;2.00;;
1344;SDS011;15375;48.540;9.268;2024-02-15T03:16:04;3.47;;;2.10;;
1344;SDS011;15375;48.540;9.268;2024-02-15T03:18:30;2.30;;;2.10;;
1344;SDS011;15375;48.540;9.268;2024-02-15T03:20:57;6.03;;;3.80;;
1344;SDS011;15375;48.540;9.268;2024-02-15T03:23:22;4.80;;;3.10;;
1344;SDS011;15375;48.540;9.268;2024-02-15T03:25:48;2.57;;;2.20;;
1344;SDS011;15375;48.540;9.268;2024-02-15T03:28:14;2.50;;;2.30;;
1344;SDS011;15375;48.540;9.268;2024-02-15T03:30:40;4.60;;;2.27;;
1344;SDS011;15375;48.540;9.268;2024-02-15T03:33:07;4.43;;;2.43;;
1344;SDS011;15375;48.540;9.268;2024-02-15T03:35:33;3.13;;;2.37;;
1344;SDS011;15375;48.540;9.268;2024-02-15T03:37:58;3.57;;;2.57;;
1344;SDS011;15375;48.540;9.268;2024-02-15T03:40:25;2.17;;;1.97;;
1344;SDS011;15375;48.540;9.268;2024-02-15T03:42:51;4.23;;;2.23;;
1344;SDS011;15375;48.540;9.268;2024-02-15T03:45:20;2.33;;;2.10;;
1344;SDS011;15375;48.540;9.268;2024-02-15T03:47:49;4.77;;;2.23;;
1344;SDS011;15375;48.540;9.268;2024-02-15T03:50:15;2.73;;;2.30;;
1344;SDS011;15375;48.540;9.268;2024-02-15T03:52:41;2.77;;;2.33;;
1344;SDS011;15375;48.540;9.268;2024-02-15T03:55:06;4.63;;;2.40;;
1344;SDS011;15375;48.540;9.268;2024-02-15T03:57:32;2.70;;;2.17;;
1344;SDS011;15375;48.540;9.268;2024-02-15T03:59:58;2.27;;;1.80;;
1344;SDS011;15375;48.540;9.268;2024-02-15T04:02:24;2.80;;;2.00;;
1344;SDS011;15375;48.540;9.268;2024-02-15T04:04:55;3.00;;;1.70;;
1344;SDS011;15375;48.540;9.268;2024-02-15T04:07:22;3.00;;;1.90;;
1344;SDS011;15375;48.540;9.268;2024-02-15T04:09:49;3.63;;;1.77;;
1344;SDS011;15375;48.540;9.268;2024-02-15T04:12:14;5.33;;;1.90;;
1344;SDS011;15375;48.540;9.268;2024-02-15T04:14:48;2.77;;;2.00;;
1344;SDS011;15375;48.540;9.268;2024-02-15T04:17:14;2.87;;;2.07;;
1344;SDS011;15375;48.540;9.268;2024-02-15T04:19:44;2.37;;;1.80;;
1344;SDS011;15375;48.540;9.268;2024-02-15T04:22:11;2.80;;;2.10;;
1344;SDS011;15375;48.540;9.268;2024-02-15T04:24:37;4.07;;;3.10;;
1344;SDS011;15375;48.540;9.268;2024-02-15T04:27:08;2.83;;;2.60;;
1344;SDS011;15375;48.540;9.268;2024-02-15T04:29:36;3.20;;;2.50;;
1344;SDS011;15375;48.540;9.268;2024-02-15T04:32:05;2.67;;;2.47;;
1344;SDS011;15375;48.540;9.268;2024-02-15T04:34:33;4.03;;;2.50;;
1344;SDS011;15375;48.540;9.268;2024-02-15T04:36:59;4.03;;;2.60;;
1344;SDS011;15375;48.540;9.268;2024-02-15T04:39:24;4.00;;;3.07;;
1344;SDS011;15375;48.540;9.268;2024-02-15T04:41:52;3.47;;;1.87;;
1344;SDS011;15375;48.540;9.268;2024-02-15T04:44:18;3.57;;;2.57;;
1344;SDS011;15375;48.540;9.268;2024-02-15T04:46:45;2.53;;;2.30;;
1344;SDS011;15375;48.540;9.268;2024-02-15T04:49:12;4.27;;;3.07;;
1344;SDS011;15375;48.540;9.268;2024-02-15T04:51:38;2.43;;;2.23;;
1344;SDS011;15375;48.540;9.268;2024-02-15T04:54:05;2.70;;;2.30;;
1344;SDS011;15375;48.540;9.268;2024-02-15T04:56:32;2.73;;;2.53;;
1344;SDS011;15375;48.540;9.268;2024-02-15T04:58:58;4.30;;;2.20;;
1344;SDS011;15375;48.540;9.268;2024-02-15T05:01:23;2.73;;;2.53;;
1344;SDS011;15375;48.540;9.268;2024-02-15T05:03:49;3.57;;;2.57;;
1344;SDS011;15375;48.540;9.268;2024-02-15T05:06:14;3.63;;;2.40;;
1344;SDS011;15375;48.540;9.268;2024-02-15T05:08:39;2.80;;;2.37;;
1344;SDS011;15375;48.540;9.268;2024-02-15T05:11:08;2.30;;;2.03;;
1344;SDS011;15375;48.540;9.268;2024-02-15T05:13:40;3.47;;;2.30;;
1344;SDS011;15375;48.540;9.268;2024-02-15T05:16:06;3.80;;;2.20;;
1344;SDS011;15375;48.540;9.268;2024-02-15T05:18:31;3.20;;;2.37;;
1344;SDS011;15375;48.540;9.268;2024-02-15T05:20:56;6.20;;;2.57;;
1344;SDS011;15375;48.540;9.268;2024-02-15T05:23:22;5.57;;;2.63;;
1344;SDS011;15375;48.540;9.268;2024-02-15T05:25:47;3.00;;;2.53;;
1344;SDS011;15375;48.540;9.268;2024-02-15T05:28:13;2.63;;;2.43;;
1344;SDS011;15375;48.540;9.268;2024-02-15T05:30:38;4.40;;;2.93;;
1344;SDS011;15375;48.540;9.268;2024-02-15T05:33:04;3.40;;;2.37;;
1344;SDS011;15375;48.540;9.268;2024-02-15T05:35:33;3.20;;;2.50;;
1344;SDS011;15375;48.540;9.268;2024-02-15T05:37:58;3.27;;;2.10;;
1344;SDS011;15375;48.540;9.268;2024-02-15T05:40:23;3.07;;;2.80;;
1344;SDS011;15375;48.540;9.268;2024-02-15T05:42:50;3.67;;;2.90;;
1344;SDS011;15375;48.540;9.268;2024-02-15T05:47:49;3.70;;;2.70;;
1344;SDS011;15375;48.540;9.268;2024-02-15T05:50:15;2.53;;;2.33;;
1344;SDS011;15375;48.540;9.268;2024-02-15T05:52:40;3.33;;;3.00;;
1344;SDS011;15375;48.540;9.268;2024-02-15T05:55:07;7.27;;;3.03;;
1344;SDS011;15375;48.540;9.268;2024-02-15T05:57:33;3.50;;;2.37;;
1344;SDS011;15375;48.540;9.268;2024-02-15T05:59:58;3.07;;;2.40;;
1344;SDS011;15375;48.540;9.268;2024-02-15T06:02:27;3.80;;;2.60;;
1344;SDS011;15375;48.540;9.268;2024-02-15T06:04:52;4.70;;;2.63;;
1344;SDS011;15375;48.540;9.268;2024-02-15T06:07:19;4.70;;;3.70;;
1344;SDS011;15375;48.540;9.268;2024-02-15T06:09:45;2.60;;;2.27;;
1344;SDS011;15375;48.540;9.268;2024-02-15T06:12:11;3.20;;;2.90;;
1344;SDS011;15375;48.540;9.268;2024-02-15T06:14:36;4.37;;;2.80;;
1344;SDS011;15375;48.540;9.268;2024-02-15T06:17:01;4.00;;;2.73;;
1344;SDS011;15375;48.540;9.268;2024-02-15T06:19:27;4.00;;;2.70;;
1344;SDS011;15375;48.540;9.268;2024-02-15T06:21:52;2.80;;;2.60;;
1344;SDS011;15375;48.540;9.268;2024-02-15T06:24:18;4.57;;;2.90;;
1344;SDS011;15375;48.540;9.268;2024-02-15T06:26:44;5.97;;;2.97;;
1344;SDS011;15375;48.540;9.268;2024-02-15T06:29:10;3.30;;;2.87;;
1344;SDS011;15375;48.540;9.268;2024-02-15T06:31:54;3.70;;;2.90;;
1344;SDS011;15375;48.540;9.268;2024-02-15T06:34:38;5.90;;;3.30;;
1344;SDS011;15375;48.540;9.268;2024-02-15T06:37:37;4.93;;;2.57;;
1344;SDS011;15375;48.540;9.268;2024-02-15T06:40:21;3.40;;;2.83;;
1344;SDS011;15375;48.540;9.268;2024-02-15T06:42:47;6.40;;;4.90;;
1344;SDS011;15375;48.540;9.268;2024-02-15T06:45:13;5.20;;;4.10;;
1344;SDS011;15375;48.540;9.268;2024-02-15T06:47:41;4.53;;;2.90;;
1344;SDS011;15375;48.540;9.268;2024-02-15T06:50:10;12.30;;;3.20;;
1344;SDS011;15375;48.540;9.268;2024-02-15T06:52:39;7.33;;;3.23;;
1344;SDS011;15375;48.540;9.268;2024-02-15T06:55:07;3.03;;;2.57;;
1344;SDS011;15375;48.540;9.268;2024-02-15T06:57:38;6.40;;;3.77;;
1344;SDS011;15375;48.540;9.268;2024-02-15T07:00:06;6.87;;;4.30;;
1344;SDS011;15375;48.540;9.268;2024-02-15T07:02:35;6.90;;;3.47;;
1344;SDS011;15375;48.540;9.268;2024-02-15T07:05:01;3.80;;;3.00;;
1344;SDS011;15375;48.540;9.268;2024-02-15T07:07:29;4.60;;;2.97;;
1344;SDS011;15375;48.540;9.268;2024-02-15T07:09:55;6.93;;;3.37;;
1344;SDS011;15375;48.540;9.268;2024-02-15T07:12:20;4.23;;;2.93;;
1344;SDS011;15375;48.540;9.268;2024-02-15T07:14:46;7.43;;;3.37;;
1344;SDS011;15375;48.540;9.268;2024-02-15T07:17:12;6.77;;;4.07;;
1344;SDS011;15375;48.540;9.268;2024-02-15T07:19:41;4.07;;;2.93;;
1344;SDS011;15375;48.540;9.268;2024-02-15T07:22:09;5.00;;;3.20;;
1344;SDS011;15375;48.540;9.268;2024-02-15T07:24:35;6.73;;;3.87;;
1344;SDS011;15375;48.540;9.268;2024-02-15T07:27:03;3.67;;;3.10;;
1344;SDS011;15375;48.540;9.268;2024-02-15T07:29:31;2.93;;;2.70;;
1344;SDS011;15375;48.540;9.268;2024-02-15T07:31:57;6.00;;;3.40;;
1344;SDS011;15375;48.540;9.268;2024-02-15T07:34:29;5.80;;;4.53;;
1344;SDS011;15375;48.540;9.268;2024-02-15T07:36:58;9.37;;;7.50;;
1344;SDS011;15375;48.540;9.268;2024-02-15T07:39:24;5.03;;;3.30;;
1344;SDS011;15375;48.540;9.268;2024-02-15T07:41:53;3.17;;;2.83;;
1344;SDS011;15375;48.540;9.268;2024-02-15T07:44:23;3.03;;;2.73;;
1344;SDS011;15375;48.540;9.268;2024-02-15T07:46:49;3.40;;;3.00;;
1344;SDS011;15375;48.540;9.268;2024-02-15T07:49:15;4.43;;;2.90;;
1344;SDS011;15375;48.540;9.268;2024-02-15T07:51:42;6.07;;;3.00;;
1344;SDS011;15375;48.540;9.268;2024-02-15T07:54:08;7.97;;;3.10;;
1344;SDS011;15375;48.540;9.268;2024-02-15T07:56:33;3.13;;;2.83;;
1344;SDS011;15375;48.540;9.268;2024-02-15T07:59:00;2.97;;;2.77;;
1344;SDS011;15375;48.540;9.268;2024-02-15T08:01:25;5.00;;;3.40;;
1344;SDS011;15375;48.540;9.268;2024-02-15T08:03:51;5.57;;;2.87;;
1344;SDS011;15375;48.540;9.268;2024-02-15T08:06:17;4.13;;;3.73;;
1344;SDS011;15375;48.540;9.268;2024-02-15T08:08:44;7.03;;;2.73;;
1344;SDS011;15375;48.540;9.268;2024-02-15T08:11:14;6.63;;;3.40;;
1344;SDS011;15375;48.540;9.268;2024-02-15T08:13:43;10.60;;;3.60;;
1344;SDS011;15375;48.540;9.268;2024-02-15T08:16:14;8.50;;;3.30;;
1344;SDS011;15375;48.540;9.268;2024-02-15T08:18:43;3.27;;;2.77;;
1344;SDS011;15375;48.540;9.268;2024-02-15T08:21:09;4.70;;;3.27;;
1344;SDS011;15375;48.540;9.268;2024-02-15T08:23:35;5.47;;;3.80;;
1344;SDS011;15375;48.540;9.268;2024-02-15T08:26:01;6.07;;;3.30;;
1344;SDS011;15375;48.540;9.268;2024-02-15T08:28:27;5.00;;;2.77;;
1344;SDS011;15375;48.540;9.268;2024-02-15T08:30:53;4.33;;;2.70;;
1344;SDS011;15375;48.540;9.268;2024-02-15T08:33:21;6.60;;;2.90;;
1344;SDS011;15375;48.540;9.268;2024-02-15T08:35:46;3.47;;;2.37;;
1344;SDS011;15375;48.540;9.268;2024-02-15T08:38:12;6.43;;;3.00;;
1344;SDS011;15375;48.540;9.268;2024-02-15T08:40:37;6.23;;;2.80;;
1344;SDS011;15375;48.540;9.268;2024-02-15T08:43:02;3.57;;;2.90;;
1344;SDS011;15375;48.540;9.268;2024-02-15T08:45:28;3.13;;;2.67;;
1344;SDS011;15375;48.540;9.268;2024-02-15T08:47:53;7.23;;;2.57;;
1344;SDS011;15375;48.540;9.268;2024-02-15T08:50:18;5.90;;;3.50;;
1344;SDS011;15375;48.540;9.268;2024-02-15T08:52:46;3.47;;;3.17;;
1344;SDS011;15375;48.540;9.268;2024-02-15T08:55:12;3.30;;;2.70;;
1344;SDS011;15375;48.540;9.268;2024-02-15T08:57:39;3.30;;;2.80;;
1344;SDS011;15375;48.540;9.268;2024-02-15T09:00:06;3.90;;;2.77;;
1344;SDS011;15375;48.540;9.268;2024-02-15T09:02:47;3.80;;;2.27;;
1344;SDS011;15375;48.540;9.268;2024-02-15T09:05:14;2.80;;;2.50;;
1344;SDS011;15375;48.540;9.268;2024-02-15T09:07:40;2.53;;;2.33;;
1344;SDS011;15375;48.540;9.268;2024-02-15T09:10:07;2.37;;;1.90;;
1344;SDS011;15375;48.540;9.268;2024-02-15T09:12:36;2.67;;;2.43;;
1344;SDS011;15375;48.540;9.268;2024-02-15T09:15:05;4.80;;;2.47;;
1344;SDS011;15375;48.540;9.268;2024-02-15T09:17:34;2.80;;;1.73;;
1344;SDS011;15375;48.540;9.268;2024-02-15T09:20:11;3.00;;;2.23;;
1344;SDS011;15375;48.540;9.268;2024-02-15T09:22:40;2.50;;;2.30;;
1344;SDS011;15375;48.540;9.268;2024-02-15T09:25:16;3.87;;;2.43;;
1344;SDS011;15375;48.540;9.268;2024-02-15T09:27:42;6.50;;;2.57;;
1344;SDS011;15375;48.540;9.268;2024-02-15T09:30:08;4.67;;;2.83;;
1344;SDS011;15375;48.540;9.268;2024-02-15T09:32:38;3.53;;;2.53;;
1344;SDS011;15375;48.540;9.268;2024-02-15T09:35:05;5.03;;;3.00;;
1344;SDS011;15375;48.540;9.268;2024-02-15T09:37:34;2.87;;;2.57;;
1344;SDS011;15375;48.540;9.268;2024-02-15T09:40:00;5.50;;;3.73;;
1344;SDS011;15375;48.540;9.268;2024-02-15T09:42:31;6.33;;;3.53;;
1344;SDS011;15375;48.540;9.268;2024-02-15T09:44:59;3.93;;;3.60;;
1344;SDS011;15375;48.540;9.268;2024-02-15T09:47:26;4.33;;;3.80;;
1344;SDS011;15375;48.540;9.268;2024-02-15T09:49:53;5.10;;;4.40;;
1344;SDS011;15375;48.540;9.268;2024-02-15T09:52:18;4.63;;;3.30;;
1344;SDS011;15375;48.540;9.268;2024-02-15T09:54:44;5.93;;;4.33;;
1344;SDS011;15375;48.540;9.268;2024-02-15T09:57:11;7.63;;;4.60;;
1344;SDS011;15375;48.540;9.268;2024-02-15T09:59:37;8.10;;;3.90;;
1344;SDS011;15375;48.540;9.268;2024-02-15T10:02:04;5.43;;;4.07;;
1344;SDS011;15375;48.540;9.268;2024-02-15T10:04:34;4.57;;;2.90;;
1344;SDS011;15375;48.540;9.268;2024-02-15T10:06:59;5.20;;;3.57;;
1344;SDS011;15375;48.540;9.268;2024-02-15T10:09:28;6.80;;;3.50;;
1344;SDS011;15375;48.540;9.268;2024-02-15T10:11:55;5.70;;;3.10;;
1344;SDS011;15375;48.540;9.268;2024-02-15T10:14:31;2.80;;;2.57;;
1344;SDS011;15375;48.540;9.268;2024-02-15T10:17:00;5.90;;;2.57;;
1344;SDS011;15375;48.540;9.268;2024-02-15T10:19:31;3.10;;;2.80;;
1344;SDS011;15375;48.540;9.268;2024-02-15T10:22:06;5.00;;;2.87;;
1344;SDS011;15375;48.540;9.268;2024-02-15T10:24:32;2.63;;;2.30;;
1344;SDS011;15375;48.540;9.268;2024-02-15T10:27:01;7.23;;;2.83;;
1344;SDS011;15375;48.540;9.268;2024-02-15T10:29:31;8.33;;;2.83;;
1344;SDS011;15375;48.540;9.268;2024-02-15T10:31:59;4.47;;;2.60;;
1344;SDS011;15375;48.540;9.268;2024-02-15T10:34:25;5.03;;;2.43;;
1344;SDS011;15375;48.540;9.268;2024-02-15T10:36:52;5.53;;;2.40;;
1344;SDS011;15375;48.540;9.268;2024-02-15T10:39:19;5.20;;;2.60;;
1344;SDS011;15375;48.540;9.268;2024-02-15T10:44:21;4.30;;;2.10;;
1344;SDS011;15375;48.540;9.268;2024-02-15T10:46:50;4.27;;;2.50;;
1344;SDS011;15375;48.540;9.268;2024-02-15T10:52:04;5.20;;;2.17;;
1344;SDS011;15375;48.540;9.268;2024-02-15T10:54:41;3.20;;;2.17;;
1344;SDS011;15375;48.540;9.268;2024-02-15T10:57:09;5.23;;;2.23;;
1344;SDS011;15375;48.540;9.268;2024-02-15T10:59:38;5.67;;;2.00;;
1344;SDS011;15375;48.540;9.268;2024-02-15T11:02:18;2.30;;;2.10;;
1344;SDS011;15375;48.540;9.268;2024-02-15T11:04:45;4.10;;;2.40;;
1344;SDS011;15375;48.540;9.268;2024-02-15T11:07:16;2.10;;;1.87;;
1344;SDS011;15375;48.540;9.268;2024-02-15T11:09:43;2.90;;;2.07;;
1344;SDS011;15375;48.540;9.268;2024-02-15T11:12:08;3.33;;;2.40;;
1344;SDS011;15375;48.540;9.268;2024-02-15T11:14:35;4.73;;;2.20;;
1344;SDS011;15375;48.540;9.268;2024-02-15T11:17:03;2.83;;;2.13;;
1344;SDS011;15375;48.540;9.268;2024-02-15T11:22:10;2.00;;;1.80;;
1344;SDS011;15375;48.540;9.268;2024-02-15T11:24:45;1.93;;;1.47;;
1344;SDS011;15375;48.540;9.268;2024-02-15T11:27:23;2.10;;;1.80;;
1344;SDS011;15375;48.540;9.268;2024-02-15T11:30:00;2.07;;;1.73;;
1344;SDS011;15375;48.540;9.268;2024-02-15T11:32:44;4.87;;;1.73;;
1344;SDS011;15375;48.540;9.268;2024-02-15T11:35:16;2.10;;;1.90;;
1344;SDS011;15375;48.540;9.268;2024-02-15T11:40:13;5.07;;;2.00;;
1344;SDS011;15375;48.540;9.268;2024-02-15T11:42:40;4.23;;;1.80;;
1344;SDS011;15375;48.540;9.268;2024-02-15T11:45:06;4.10;;;1.93;;
1344;SDS011;15375;48.540;9.268;2024-02-15T11:47:33;2.50;;;2.27;;
1344;SDS011;15375;48.540;9.268;2024-02-15T11:50:02;2.80;;;2.20;;
1344;SDS011;15375;48.540;9.268;2024-02-15T11:52:28;2.40;;;2.20;;
1344;SDS011;15375;48.540;9.268;2024-02-15T11:54:53;4.67;;;2.10;;
1344;SDS011;15375;48.540;9.268;2024-02-15T11:57:28;3.13;;;2.53;;
1344;SDS011;15375;48.540;9.268;2024-02-15T12:00:02;2.90;;;1.80;;
1344;SDS011;15375;48.540;9.268;2024-02-15T12:02:46;3.20;;;2.10;;
1344;SDS011;15375;48.540;9.268;2024-02-15T12:05:30;1.90;;;1.60;;
1344;SDS011;15375;48.540;9.268;2024-02-15T12:08:14;2.90;;;1.60;;
1344;SDS011;15375;48.540;9.268;2024-02-15T12:10:59;2.30;;;1.63;;
1344;SDS011;15375;48.540;9.268;2024-02-15T12:13:43;1.60;;;1.50;;
1344;SDS011;15375;48.540;9.268;2024-02-15T12:16:27;5.37;;;1.90;;
1344;SDS011;15375;48.540;9.268;2024-02-15T12:19:11;4.10;;;1.93;;
1344;SDS011;15375;48.540;9.268;2024-02-15T12:21:36;3.03;;;1.87;;
1344;SDS011;15375;48.540;9.268;2024-02-15T12:24:06;5.27;;;1.70;;
1344;SDS011;15375;48.540;9.268;2024-02-15T12:26:32;2.30;;;2.10;;
1344;SDS011;15375;48.540;9.268;2024-02-15T12:28:59;4.10;;;2.03;;
1344;SDS011;15375;48.540;9.268;2024-02-15T12:31:26;2.23;;;1.70;;
1344;SDS011;15375;48.540;9.268;2024-02-15T12:34:04;2.80;;;1.50;;
1344;SDS011;15375;48.540;9.268;2024-02-15T12:36:36;3.43;;;2.00;;
1344;SDS011;15375;48.540;9.268;2024-02-15T12:39:03;2.47;;;1.70;;
1344;SDS011;15375;48.540;9.268;2024-02-15T12:41:39;6.63;;;2.13;;
1344;SDS011;15375;48.540;9.268;2024-02-15T12:44:06;3.70;;;1.87;;
1344;SDS011;15375;48.540;9.268;2024-02-15T12:46:33;2.20;;;2.00;;
1344;SDS011;15375;48.540;9.268;2024-02-15T12:51:50;2.93;;;1.90;;
1344;SDS011;15375;48.540;9.268;2024-02-15T12:54:19;3.77;;;1.87;;
1344;SDS011;15375;48.540;9.268;2024-02-15T12:56:47;3.73;;;1.93;;
1344;SDS011;15375;48.540;9.268;2024-02-15T12:59:18;2.50;;;1.73;;
1344;SDS011;15375;48.540;9.268;2024-02-15T13:01:49;1.93;;;1.37;;
1344;SDS011;15375;48.540;9.268;2024-02-15T13:04:23;3.57;;;1.90;;
1344;SDS011;15375;48.540;9.268;2024-02-15T13:06:53;1.50;;;1.33;;
1344;SDS011;15375;48.540;9.268;2024-02-15T13:09:19;1.77;;;1.67;;
1344;SDS011;15375;48.540;9.268;2024-02-15T13:11:47;2.67;;;1.80;;
1344;SDS011;15375;48.540;9.268;2024-02-15T13:14:12;4.17;;;1.80;;
1344;SDS011;15375;48.540;9.268;2024-02-15T13:16:38;4.20;;;2.33;;
1344;SDS011;15375;48.540;9.268;2024-02-15T13:19:03;1.97;;;1.80;;
1344;SDS011;15375;48.540;9.268;2024-02-15T13:21:31;4.10;;;2.10;;
1344;SDS011;15375;48.540;9.268;2024-02-15T13:23:59;2.00;;;1.50;;
1344;SDS011;15375;48.540;9.268;2024-02-15T13:26:24;2.40;;;1.83;;
1344;SDS011;15375;48.540;9.268;2024-02-15T13:28:51;1.67;;;1.57;;
1344;SDS011;15375;48.540;9.268;2024-02-15T13:31:17;3.00;;;2.00;;
1344;SDS011;15375;48.540;9.268;2024-02-15T13:33:42;3.90;;;2.00;;
1344;SDS011;15375;48.540;9.268;2024-02-15T13:36:08;4.27;;;2.07;;
1344;SDS011;15375;48.540;9.268;2024-02-15T13:38:36;2.93;;;1.97;;
1344;SDS011;15375;48.540;9.268;2024-02-15T13:41:02;1.63;;;1.53;;
1344;SDS011;15375;48.540;9.268;2024-02-15T13:43:28;4.03;;;1.97;;
1344;SDS011;15375;48.540;9.268;2024-02-15T13:45:54;2.80;;;1.90;;
1344;SDS011;15375;48.540;9.268;2024-02-15T13:48:19;2.50;;;2.30;;
1344;SDS011;15375;48.540;9.268;2024-02-15T13:50:45;2.23;;;1.73;;
1344;SDS011;15375;48.540;9.268;2024-02-15T13:53:10;2.20;;;1.40;;
1344;SDS011;15375;48.540;9.268;2024-02-15T13:55:38;2.27;;;1.80;;
1344;SDS011;15375;48.540;9.268;2024-02-15T13:58:04;3.17;;;1.83;;
1344;SDS011;15375;48.540;9.268;2024-02-15T14:00:32;4.03;;;2.13;;
1344;SDS011;15375;48.540;9.268;2024-02-15T14:03:02;3.70;;;2.00;;
1344;SDS011;15375;48.540;9.268;2024-02-15T14:05:31;3.77;;;1.40;;
1344;SDS011;15375;48.540;9.268;2024-02-15T14:07:58;5.20;;;1.50;;
1344;SDS011;15375;48.540;9.268;2024-02-15T14:10:25;2.50;;;1.60;;
1344;SDS011;15375;48.540;9.268;2024-02-15T14:12:53;2.33;;;1.70;;
1344;SDS011;15375;48.540;9.268;2024-02-15T14:15:26;4.50;;;2.63;;
1344;SDS011;15375;48.540;9.268;2024-02-15T14:17:52;5.97;;;2.10;;
1344;SDS011;15375;48.540;9.268;2024-02-15T14:20:18;4.33;;;1.80;;
1344;SDS011;15375;48.540;9.268;2024-02-15T14:22:47;6.17;;;2.10;;
1344;SDS011;15375;48.540;9.268;2024-02-15T14:25:23;2.57;;;1.80;;
1344;SDS011;15375;48.540;9.268;2024-02-15T14:27:50;2.03;;;1.83;;
1344;SDS011;15375;48.540;9.268;2024-02-15T14:30:16;3.60;;;1.60;;
1344;SDS011;15375;48.540;9.268;2024-02-15T14:33:00;3.83;;;2.20;;
1344;SDS011;15375;48.540;9.268;2024-02-15T14:35:35;2.70;;;2.30;;
1344;SDS011;15375;48.540;9.268;2024-02-15T14:40:33;2.47;;;2.13;;
1344;SDS011;15375;48.540;9.268;2024-02-15T14:42:59;2.07;;;1.50;;
1344;SDS011;15375;48.540;9.268;2024-02-15T14:45:24;2.20;;;1.80;;
1344;SDS011;15375;48.540;9.268;2024-02-15T14:47:51;3.10;;;1.87;;
1344;SDS011;15375;48.540;9.268;2024-02-15T14:50:16;4.83;;;1.90;;
1344;SDS011;15375;48.540;9.268;2024-02-15T14:52:42;4.40;;;1.60;;
1344;SDS011;15375;48.540;9.268;2024-02-15T14:55:07;3.00;;;2.13;;
1344;SDS011;15375;48.540;9.268;2024-02-15T14:57:36;2.20;;;2.00;;
1344;SDS011;15375;48.540;9.268;2024-02-15T15:00:05;4.87;;;2.17;;
1344;SDS011;15375;48.540;9.268;2024-02-15T15:02:39;2.97;;;1.73;;
1344;SDS011;15375;48.540;9.268;2024-02-15T15:05:08;3.97;;;2.10;;
1344;SDS011;15375;48.540;9.268;2024-02-15T15:07:52;3.57;;;1.73;;
1344;SDS011;15375;48.540;9.268;2024-02-15T15:10:36;4.47;;;1.77;;
1344;SDS011;15375;48.540;9.268;2024-02-15T15:13:20;2.47;;;2.23;;
1344;SDS011;15375;48.540;9.268;2024-02-15T15:15:46;5.20;;;2.10;;
1344;SDS011;15375;48.540;9.268;2024-02-15T15:18:13;3.83;;;1.67;;
1344;SDS011;15375;48.540;9.268;2024-02-15T15:20:38;3.30;;;2.50;;
1344;SDS011;15375;48.540;9.268;2024-02-15T15:23:04;2.23;;;2.03;;
1344;SDS011;15375;48.540;9.268;2024-02-15T15:25:32;8.77;;;2.33;;